createdAt,value
2022-09-25T00:01:28.105Z,25.1
2022-09-25T00:06:50.956Z,25.1
2022-09-25T00:12:31.586Z,25.1
2022-09-25T00:18:08.906Z,25.1
2022-09-25T00:23:46.277Z,25.1
2022-09-25T00:29:24.427Z,25.1
2022-09-25T00:34:46.380Z,25.1
2022-09-25T00:40:24.081Z,25.1
2022-09-25T00:45:30.651Z,25.1
2022-09-25T00:51:07.580Z,25.1
2022-09-25T00:56:45.438Z,25.1
2022-09-25T01:02:08.153Z,25.1
2022-09-25T01:07:45.841Z,25.1
2022-09-25T01:13:23.236Z,25.1
2022-09-25T01:18:45.356Z,25
2022-09-25T01:24:23.516Z,25.1
2022-09-25T01:30:01.194Z,25
2022-09-25T01:35:39.254Z,25
2022-09-25T01:41:16.791Z,25
2022-09-25T01:46:54.131Z,25
2022-09-25T01:52:14.723Z,25
2022-09-25T01:57:35.971Z,25
2022-09-25T02:02:58.911Z,25
2022-09-25T02:08:20.412Z,25
2022-09-25T02:13:41.499Z,25
2022-09-25T02:18:48.432Z,25
2022-09-25T02:24:10.152Z,25
2022-09-25T02:29:31.893Z,24.9
2022-09-25T02:34:58.760Z,24.9
2022-09-25T02:40:20.477Z,24.9
2022-09-25T02:45:42.403Z,24.9
2022-09-25T02:51:04.579Z,24.9
2022-09-25T02:56:40.518Z,24.9
2022-09-25T03:02:24.169Z,24.9
2022-09-25T03:07:46.661Z,24.9
2022-09-25T03:13:08.417Z,24.9
2022-09-25T03:18:15.489Z,24.9
2022-09-25T03:23:37.963Z,24.9
2022-09-25T03:28:59.517Z,24.9
2022-09-25T03:34:06.211Z,24.9
2022-09-25T03:39:27.911Z,24.9
2022-09-25T03:44:48.745Z,24.9
2022-09-25T03:50:09.754Z,24.9
2022-09-25T03:55:16.172Z,24.9
2022-09-25T04:00:23.040Z,24.9
2022-09-25T04:05:30.227Z,24.9
2022-09-25T04:11:07.756Z,24.9
2022-09-25T04:15:43.121Z,24.9
2022-09-25T04:21:04.892Z,24.9
2022-09-25T04:25:58.357Z,24.8
2022-09-25T04:31:18.251Z,24.9
2022-09-25T04:36:40.463Z,24.8
2022-09-25T04:42:18.150Z,24.9
2022-09-25T04:47:45.031Z,24.9
2022-09-25T04:53:07.254Z,24.8
2022-09-25T04:59:02.518Z,24.8
2022-09-25T05:04:27.189Z,24.6
2022-09-25T05:09:49.496Z,24.5
2022-09-25T05:15:12.172Z,24.5
2022-09-25T05:20:35.133Z,24.5
2022-09-25T05:26:02.878Z,24.5
2022-09-25T05:31:09.989Z,24.5
2022-09-25T05:36:32.114Z,24.6
2022-09-25T05:42:09.885Z,24.6
2022-09-25T05:47:47.928Z,24.6
2022-09-25T05:53:10.642Z,24.6
2022-09-25T05:58:33.040Z,24.6
2022-09-25T06:03:55.483Z,24.6
2022-09-25T06:14:51.258Z,31.7
2022-09-25T06:20:32.947Z,29.6
2022-09-25T06:26:09.993Z,34.4
2022-09-25T06:31:54.126Z,33.9
2022-09-25T06:37:33.513Z,34.8
2022-09-25T06:43:13.058Z,34.9
2022-09-25T06:48:56.762Z,36.1
2022-09-25T06:54:34.913Z,37.3
2022-09-25T07:00:12.174Z,38.3
2022-09-25T07:05:40.739Z,39.4
2022-09-25T07:11:19.171Z,40.3
2022-09-25T07:16:57.032Z,39.1
2022-09-25T07:22:34.835Z,39.7
2022-09-25T07:28:13.653Z,40.5
2022-09-25T07:33:51.608Z,41.4
2022-09-25T07:39:34.687Z,42.4
2022-09-25T07:45:38.338Z,43
2022-09-25T07:51:21.569Z,43.8
2022-09-25T07:56:44.012Z,44.6
2022-09-25T08:02:31.019Z,45.3
2022-09-25T08:08:10.906Z,45.9
2022-09-25T08:13:50.363Z,46.6
2022-09-25T08:19:18.684Z,47.3
2022-09-25T08:24:58.917Z,47.9
2022-09-25T08:30:39.063Z,48.6
2022-09-25T08:36:38.021Z,49.2
2022-09-25T08:42:20.660Z,49.8
2022-09-25T08:48:26.343Z,50.4
2022-09-25T08:53:50.993Z,50.8
2022-09-25T08:59:34.202Z,51.4
2022-09-25T09:16:05.871Z,52.9
2022-09-25T09:21:29.159Z,53.3
2022-09-25T09:26:58.599Z,53.7
2022-09-25T09:32:07.029Z,54.1
2022-09-25T09:38:02.670Z,54.2
2022-09-25T09:43:27.911Z,53.8
2022-09-25T09:49:07.100Z,54.3
2022-09-25T09:54:50.892Z,55
2022-09-25T10:00:36.662Z,55.7
2022-09-25T10:06:44.760Z,56.2
2022-09-25T10:12:24.043Z,56.6
2022-09-25T10:18:04.701Z,57.1
2022-09-25T10:23:48.072Z,57.6
2022-09-25T20:06:48.832Z,25.1
2022-09-25T20:12:31.928Z,25.1
2022-09-25T20:18:16.237Z,25
2022-09-25T20:23:41.098Z,25
2022-09-25T20:29:21.722Z,25
2022-09-25T20:35:02.572Z,24.9
2022-09-25T20:40:28.499Z,24.9
2022-09-25T20:46:09.463Z,24.9
2022-09-25T20:51:33.548Z,24.9
2022-09-25T20:57:14.358Z,24.9
2022-09-25T21:02:56.085Z,24.9
2022-09-25T21:08:39.939Z,24.9
2022-09-25T21:14:04.443Z,24.8
2022-09-25T21:19:44.803Z,24.8
2022-09-25T21:25:24.576Z,24.8
2022-09-25T21:31:04.212Z,24.8
2022-09-25T21:36:31.121Z,24.8
2022-09-25T21:41:57.384Z,24.8
2022-09-25T21:47:37.397Z,24.8
2022-09-25T21:53:16.873Z,24.8
2022-09-25T21:58:54.695Z,24.8
2022-09-25T22:04:34.546Z,24.8
2022-09-25T22:10:13.700Z,24.8
2022-09-25T22:15:55.317Z,24.8
2022-09-25T22:21:18.347Z,24.8
2022-09-25T22:26:41.042Z,24.8
2022-09-25T22:32:19.683Z,24.8
2022-09-25T22:37:48.486Z,24.8
2022-09-25T22:43:11.309Z,24.8
2022-09-25T22:48:48.252Z,24.8
2022-09-25T22:54:25.544Z,24.8
2022-09-25T23:00:03.248Z,24.8
2022-09-25T23:05:41.425Z,24.7
2022-09-25T23:11:41.091Z,24.8
2022-09-25T23:17:19.662Z,24.8
2022-09-25T23:22:55.632Z,24.8
2022-09-25T23:28:17.802Z,24.8
2022-09-25T23:33:41.013Z,24.8
2022-09-25T23:44:44.431Z,24.8
2022-09-25T23:50:07.751Z,24.8
2022-09-25T23:55:45.063Z,24.8
